Time;durP1;ratioP1;P1;durP2;ratioP2;P2;SDS_P1;SDS_P2;PMS_P1;PMS_P2;Temp;Humidity;BMP_temperature;BMP_pressure;BME280_temperature;BME280_humidity;BME280_pressure;Samples;Min_cycle;Max_cycle;Signal;HPM_P1;HPM_P2
2023/06/13 00:00:51;;;;;;;6.73;3.83;;;;;;;18.50;95.52;95932.34;6167043;23;20016;-83
2023/06/13 00:03:19;;;;;;;10.97;3.73;;;;;;;18.48;94.31;95928.28;6158268;23;20005;-83
2023/06/13 00:05:46;;;;;;;8.30;4.10;;;;;;;18.55;94.62;95924.53;6132087;23;20048;-83
2023/06/13 00:08:20;;;;;;;7.13;3.63;;;;;;;18.30;96.35;95926.34;6131848;23;20005;-83
2023/06/13 00:10:50;;;;;;;8.37;3.90;;;;;;;18.36;95.82;95920.97;6157385;23;20005;-83
2023/06/13 00:13:17;;;;;;;8.50;3.70;;;;;;;18.23;96.28;95922.91;6159653;23;20479;-83
2023/06/13 00:15:51;;;;;;;7.70;3.33;;;;;;;18.41;95.65;95927.50;6135953;23;20067;-82
2023/06/13 00:18:22;;;;;;;7.80;3.40;;;;;;;18.33;96.53;95926.72;6185302;23;20645;-83
2023/06/13 00:20:48;;;;;;;7.47;3.70;;;;;;;18.18;97.32;95922.78;6135417;23;20095;-83
2023/06/13 00:23:15;;;;;;;9.13;3.67;;;;;;;18.22;96.77;95923.97;6187645;23;20005;-83
2023/06/13 00:25:41;;;;;;;6.57;3.20;;;;;;;18.02;97.87;95922.22;6163398;23;20021;-83
2023/06/13 00:28:06;;;;;;;6.07;3.30;;;;;;;18.01;97.17;95923.28;6162287;23;20439;-83
2023/06/13 00:30:32;;;;;;;4.90;2.87;;;;;;;18.21;96.78;95922.31;6137621;23;20016;-83
2023/06/13 00:32:59;;;;;;;5.80;3.23;;;;;;;18.20;95.95;95918.84;6136602;23;20337;-83
2023/06/13 00:35:25;;;;;;;7.07;3.93;;;;;;;18.16;96.92;95917.63;6188068;23;20055;-83
2023/06/13 00:37:54;;;;;;;7.87;3.60;;;;;;;18.09;97.27;95917.69;6164768;23;20380;-83
2023/06/13 00:40:20;;;;;;;7.67;3.57;;;;;;;18.12;96.78;95917.25;6137400;23;20009;-83
2023/06/13 00:42:48;;;;;;;6.47;3.27;;;;;;;17.96;97.87;95917.75;6137238;23;20040;-83
2023/06/13 00:45:27;;;;;;;7.10;3.33;;;;;;;18.06;97.47;95919.97;6136813;23;20001;-83
2023/06/13 00:48:02;;;;;;;7.20;3.63;;;;;;;17.96;98.40;95915.09;6135859;23;20009;-83
2023/06/13 00:50:34;;;;;;;6.40;3.13;;;;;;;17.68;98.80;95916.22;6136421;23;20028;-82
2023/06/13 00:53:10;;;;;;;5.43;2.83;;;;;;;17.89;98.17;95903.69;6160051;23;20463;-83
2023/06/13 00:55:38;;;;;;;9.30;3.63;;;;;;;18.08;96.93;95904.59;6135598;23;20001;-83
2023/06/13 00:58:10;;;;;;;4.90;2.90;;;;;;;17.94;97.44;95901.22;6159100;23;20456;-83
2023/06/13 01:00:39;;;;;;;9.70;3.37;;;;;;;17.96;97.46;95895.66;6189499;23;20006;-82
2023/06/13 01:03:10;;;;;;;8.47;2.97;;;;;;;17.55;100.00;95900.34;6184484;23;20058;-83
2023/06/13 01:05:37;;;;;;;8.47;3.23;;;;;;;17.71;99.73;95900.88;6134871;23;20084;-83
2023/06/13 01:08:24;;;;;;;8.50;3.30;;;;;;;17.51;100.00;95901.78;6187421;23;20385;-83
2023/06/13 01:11:12;;;;;;;5.30;2.90;;;;;;;17.85;98.77;95891.84;6136641;23;20004;-83
2023/06/13 01:13:51;;;;;;;6.73;3.30;;;;;;;17.85;98.69;95897.16;6161471;23;20377;-82
2023/06/13 01:16:43;;;;;;;4.70;2.80;;;;;;;17.90;98.55;95892.00;6136532;23;20392;-82
2023/06/13 01:19:18;;;;;;;6.33;2.63;;;;;;;18.02;97.59;95890.31;6185348;23;20336;-83
2023/06/13 01:21:45;;;;;;;6.03;3.53;;;;;;;17.93;97.96;95886.25;6187264;23;20001;-82
2023/06/13 01:24:19;;;;;;;6.20;3.33;;;;;;;17.51;99.87;95893.81;6159493;23;20019;-83
2023/06/13 01:26:50;;;;;;;7.30;2.90;;;;;;;17.91;98.51;95885.66;6160871;23;20483;-84
2023/06/13 01:29:17;;;;;;;5.50;2.77;;;;;;;17.44;100.00;95880.53;6136098;23;20024;-83
2023/06/13 01:31:45;;;;;;;6.13;2.97;;;;;;;17.75;100.00;95878.16;6136134;23;20015;-83
2023/06/13 01:34:14;;;;;;;6.37;3.37;;;;;;;17.49;100.00;95879.91;6136004;23;20012;-82
2023/06/13 01:36:40;;;;;;;5.30;2.90;;;;;;;17.73;99.87;95880.19;6160163;23;20012;-83
2023/06/13 01:39:06;;;;;;;8.13;3.20;;;;;;;17.59;100.00;95869.63;6136080;23;20011;-82
2023/06/13 01:41:32;;;;;;;17.37;3.47;;;;;;;17.53;100.00;95877.63;6160485;23;20577;-83
2023/06/13 01:43:57;;;;;;;7.33;2.97;;;;;;;17.29;100.00;95877.31;6135566;23;20009;-82
2023/06/13 01:46:26;;;;;;;6.03;3.20;;;;;;;17.54;100.00;95873.94;6135833;23;20000;-83
2023/06/13 01:49:21;;;;;;;6.37;3.00;;;;;;;17.53;100.00;95870.47;6160028;23;20000;-83
2023/06/13 01:52:25;;;;;;;7.17;2.70;;;;;;;17.40;100.00;95871.38;6135138;23;20008;-83
2023/06/13 01:55:00;;;;;;;6.97;3.00;;;;;;;17.14;100.00;95874.91;6135772;23;20005;-83
2023/06/13 01:57:30;;;;;;;6.40;2.83;;;;;;;17.14;100.00;95882.91;6159269;23;20432;-82
2023/06/13 01:59:56;;;;;;;5.80;3.47;;;;;;;17.18;100.00;95876.13;6134306;23;20088;-83
2023/06/13 02:02:23;;;;;;;5.23;3.07;;;;;;;17.06;100.00;95876.97;6134762;23;20104;-83
2023/06/13 02:05:01;;;;;;;7.53;2.80;;;;;;;16.89;100.00;95881.91;6159012;23;20112;-83
2023/06/13 02:07:28;;;;;;;5.40;2.90;;;;;;;16.86;100.00;95877.84;6158934;23;20005;-83
2023/06/13 02:09:54;;;;;;;5.90;3.30;;;;;;;17.15;100.00;95876.53;6186097;23;20008;-83
2023/06/13 02:12:19;;;;;;;6.80;3.33;;;;;;;17.01;100.00;95880.28;6135371;23;20553;-83
2023/06/13 02:14:45;;;;;;;8.37;3.03;;;;;;;16.78;100.00;95879.91;6135806;23;20001;-82
2023/06/13 02:17:12;;;;;;;6.97;3.20;;;;;;;17.06;100.00;95877.78;6135220;23;20001;-84
2023/06/13 02:19:37;;;;;;;5.60;3.03;;;;;;;16.92;100.00;95882.31;6136505;23;20009;-82
2023/06/13 02:22:03;;;;;;;6.90;2.93;;;;;;;16.64;100.00;95887.84;6160400;23;20012;-83
2023/06/13 02:24:29;;;;;;;9.10;4.30;;;;;;;16.36;100.00;95889.88;6134763;23;20009;-82
2023/06/13 02:26:55;;;;;;;6.90;2.83;;;;;;;16.58;100.00;95879.88;6135199;23;20013;-83
2023/06/13 02:29:20;;;;;;;8.80;3.30;;;;;;;16.61;100.00;95884.78;6135057;23;20001;-83
2023/06/13 02:31:46;;;;;;;11.93;3.90;;;;;;;16.59;100.00;95876.22;6136370;23;20341;-83
2023/06/13 02:34:12;;;;;;;7.73;3.93;;;;;;;16.43;100.00;95877.44;6135800;23;20092;-82
2023/06/13 02:36:38;;;;;;;7.47;3.50;;;;;;;16.63;100.00;95872.97;6135669;23;20039;-83
2023/06/13 02:39:04;;;;;;;6.37;3.10;;;;;;;16.43;100.00;95872.97;6159394;23;20009;-83
2023/06/13 02:41:29;;;;;;;10.20;3.20;;;;;;;16.41;100.00;95866.22;6136329;23;20001;-83
2023/06/13 02:43:55;;;;;;;4.73;2.60;;;;;;;16.22;100.00;95876.59;6161008;23;20001;-83
2023/06/13 02:46:21;;;;;;;5.13;3.10;;;;;;;16.33;100.00;95871.72;6134566;23;20009;-83
2023/06/13 02:48:46;;;;;;;539.67;327.07;;;;;;;16.23;100.00;95870.31;6160131;23;20019;-82
2023/06/13 02:51:22;;;;;;;27.20;15.57;;;;;;;16.14;100.00;95874.16;6156208;23;20007;-83
2023/06/13 02:53:47;;;;;;;8.13;4.90;;;;;;;16.08;100.00;95874.16;6159238;23;20001;-82
2023/06/13 02:56:13;;;;;;;5.63;3.33;;;;;;;15.98;100.00;95869.25;6134373;23;20064;-83
2023/06/13 02:58:39;;;;;;;6.40;3.70;;;;;;;15.87;100.00;95864.53;6135128;23;20009;-82
2023/06/13 03:01:05;;;;;;;5.97;3.33;;;;;;;15.87;100.00;95872.50;6158636;23;20017;-83
2023/06/13 03:03:32;;;;;;;8.53;3.23;;;;;;;16.09;100.00;95870.47;6158641;23;20533;-83
2023/06/13 03:06:02;;;;;;;5.57;2.97;;;;;;;15.91;100.00;95868.41;6158858;23;20028;-83
2023/06/13 03:08:34;;;;;;;6.03;3.50;;;;;;;15.90;100.00;95866.78;6158404;23;20058;-83
2023/06/13 03:10:59;;;;;;;6.67;3.53;;;;;;;15.76;100.00;95866.78;6134265;23;20017;-82
2023/06/13 03:13:27;;;;;;;9.33;3.40;;;;;;;15.87;100.00;95868.00;6136026;23;20059;-82
2023/06/13 03:15:56;;;;;;;7.20;3.80;;;;;;;15.92;100.00;95870.84;6135977;23;20055;-83
2023/06/13 03:18:23;;;;;;;7.20;3.07;;;;;;;15.90;100.00;95880.88;6160602;23;20009;-83
2023/06/13 03:20:49;;;;;;;6.57;3.30;;;;;;;15.98;100.00;95870.06;6136179;23;20100;-83
2023/06/13 03:23:19;;;;;;;8.27;3.73;;;;;;;15.59;100.00;95881.34;6136861;23;20442;-82
2023/06/13 03:25:45;;;;;;;7.43;3.73;;;;;;;15.74;100.00;95879.41;6135916;23;20007;-83
2023/06/13 03:28:11;;;;;;;6.27;3.30;;;;;;;15.63;100.00;95872.00;6160621;23;20096;-83
2023/06/13 03:30:38;;;;;;;10.50;3.87;;;;;;;15.49;100.00;95881.75;6136038;23;20028;-82
2023/06/13 03:33:05;;;;;;;7.13;3.33;;;;;;;15.33;100.00;95882.91;6136308;23;20529;-82
2023/06/13 03:35:35;;;;;;;8.30;4.03;;;;;;;15.63;100.00;95877.31;6192353;23;20005;-83
2023/06/13 03:38:02;;;;;;;7.27;3.50;;;;;;;15.66;100.00;95882.25;6138162;23;20040;-82
2023/06/13 03:40:29;;;;;;;7.53;3.57;;;;;;;15.82;100.00;95881.03;6140189;23;20005;-83
2023/06/13 03:42:57;;;;;;;7.47;3.87;;;;;;;15.53;100.00;95882.16;6136526;23;20724;-83
2023/06/13 03:45:24;;;;;;;10.03;4.33;;;;;;;15.70;100.00;95883.47;6137220;23;20676;-83
2023/06/13 03:47:51;;;;;;;6.47;3.70;;;;;;;15.58;100.00;95882.38;6161028;23;20009;-82
2023/06/13 03:50:17;;;;;;;11.07;4.87;;;;;;;15.62;100.00;95888.09;6160412;23;20340;-83
2023/06/13 03:52:43;;;;;;;7.00;3.67;;;;;;;15.71;100.00;95890.41;6136386;23;20084;-84
2023/06/13 03:55:10;;;;;;;8.10;3.60;;;;;;;15.81;100.00;95889.22;6136127;23;20036;-82
2023/06/13 03:57:35;;;;;;;17.17;10.37;;;;;;;15.66;100.00;95887.53;6161222;23;20009;-83
2023/06/13 04:00:01;;;;;;;27.87;15.53;;;;;;;15.69;100.00;95883.66;6137206;23;20009;-83
2023/06/13 04:02:27;;;;;;;6.57;3.60;;;;;;;15.66;100.00;95886.66;6136535;23;20012;-83
2023/06/13 04:04:52;;;;;;;11.33;4.30;;;;;;;15.96;100.00;95890.69;6160939;23;20095;-83
2023/06/13 04:07:21;;;;;;;8.57;3.80;;;;;;;15.79;100.00;95892.88;6135753;23;20055;-83
2023/06/13 04:09:47;;;;;;;9.70;4.13;;;;;;;15.75;100.00;95896.94;6160385;23;20012;-83
2023/06/13 04:12:14;;;;;;;7.43;3.70;;;;;;;15.74;100.00;95895.31;6136383;23;20009;-83
2023/06/13 04:14:40;;;;;;;9.63;4.03;;;;;;;15.59;100.00;95897.25;6159940;23;20449;-82
2023/06/13 04:17:08;;;;;;;12.73;3.73;;;;;;;15.82;100.00;95898.78;6136705;23;20012;-82
2023/06/13 04:19:34;;;;;;;6.97;3.60;;;;;;;15.95;100.00;95901.47;6159596;23;20005;-80
2023/06/13 04:22:05;;;;;;;9.57;3.63;;;;;;;15.83;100.00;95897.75;6159436;23;20452;-80
2023/06/13 04:24:31;;;;;;;6.47;3.53;;;;;;;16.08;100.00;95901.50;6160040;23;20433;-80
2023/06/13 04:26:56;;;;;;;9.53;4.10;;;;;;;16.14;100.00;95907.84;6160196;23;20004;-80
2023/06/13 04:29:25;;;;;;;8.07;4.37;;;;;;;16.18;100.00;95907.22;6159750;23;20333;-80
2023/06/13 04:31:50;;;;;;;6.47;3.07;;;;;;;16.33;100.00;95908.88;6135138;23;20081;-80
2023/06/13 04:34:18;;;;;;;8.23;3.47;;;;;;;16.04;100.00;95900.28;6159337;23;20013;-80
2023/06/13 04:36:44;;;;;;;6.67;4.10;;;;;;;16.05;100.00;95907.19;6159885;23;20653;-80
2023/06/13 04:39:10;;;;;;;9.57;3.83;;;;;;;16.19;100.00;95898.25;6159650;23;20456;-80
2023/06/13 04:41:38;;;;;;;7.27;3.40;;;;;;;16.39;100.00;95902.75;6135081;23;20044;-80
2023/06/13 04:44:14;;;;;;;9.23;4.00;;;;;;;16.46;100.00;95898.25;6135400;23;20059;-80
2023/06/13 04:46:43;;;;;;;7.93;3.47;;;;;;;16.40;100.00;95907.88;6135764;23;20381;-79
2023/06/13 04:49:09;;;;;;;9.43;3.50;;;;;;;16.38;100.00;95906.44;6134424;23;20454;-79
2023/06/13 04:51:34;;;;;;;6.57;3.57;;;;;;;16.37;100.00;95908.28;6159539;23;20005;-80
2023/06/13 04:54:00;;;;;;;10.80;4.73;;;;;;;16.69;100.00;95903.97;6182641;23;20067;-79
2023/06/13 04:56:27;;;;;;;6.87;3.87;;;;;;;16.35;100.00;95912.16;6157683;23;20009;-79
2023/06/13 04:58:55;;;;;;;8.90;4.07;;;;;;;16.55;100.00;95912.97;6158722;23;20004;-79
2023/06/13 05:01:27;;;;;;;7.50;3.60;;;;;;;16.80;100.00;95907.91;6158967;23;20005;-79
2023/06/13 05:03:55;;;;;;;8.30;3.63;;;;;;;17.23;100.00;95909.22;6159161;23;20037;-79
2023/06/13 05:06:21;;;;;;;7.47;3.67;;;;;;;16.93;100.00;95913.19;6133951;23;20032;-83
2023/06/13 05:08:47;;;;;;;6.07;3.30;;;;;;;17.15;100.00;95907.63;6159611;23;20001;-81
2023/06/13 05:11:13;;;;;;;7.13;3.60;;;;;;;17.12;100.00;95913.34;6135055;23;20012;-81
2023/06/13 05:13:39;;;;;;;6.97;3.80;;;;;;;17.23;100.00;95896.75;6159098;23;20513;-80
2023/06/13 05:16:05;;;;;;;9.30;3.43;;;;;;;17.07;100.00;95903.34;6160046;23;20009;-81
2023/06/13 05:18:31;;;;;;;6.30;3.73;;;;;;;17.14;100.00;95898.84;6185094;23;20063;-81
2023/06/13 05:20:58;;;;;;;7.10;3.53;;;;;;;17.20;100.00;95892.69;6135444;23;20005;-79
2023/06/13 05:23:24;;;;;;;5.93;3.27;;;;;;;17.39;100.00;95885.66;6134533;23;20009;-82
2023/06/13 05:25:49;;;;;;;10.47;4.50;;;;;;;17.51;100.00;95896.47;6138424;23;20079;-80
2023/06/13 05:28:18;;;;;;;14.23;4.10;;;;;;;17.67;100.00;95890.69;6160766;23;20075;-80
2023/06/13 05:30:44;;;;;;;7.97;3.83;;;;;;;17.69;100.00;95901.09;6162014;23;20001;-81
2023/06/13 05:33:10;;;;;;;6.17;2.83;;;;;;;18.07;100.00;95894.97;6137484;23;20111;-81
2023/06/13 05:35:36;;;;;;;6.20;3.77;;;;;;;18.15;98.38;95897.38;6164128;23;20013;-80
2023/06/13 05:38:01;;;;;;;6.53;3.10;;;;;;;18.00;100.00;95907.50;6135062;23;20008;-81
2023/06/13 05:40:28;;;;;;;7.57;3.30;;;;;;;18.52;98.88;95898.34;6135485;23;20007;-83
2023/06/13 05:42:56;;;;;;;12.87;3.87;;;;;;;18.23;100.00;95909.63;6195566;23;20005;-86
2023/06/13 05:45:21;;;;;;;9.30;3.30;;;;;;;18.70;97.88;95910.06;6170535;23;20013;-87
2023/06/13 05:47:47;;;;;;;6.17;3.50;;;;;;;18.73;93.88;95909.69;6142660;23;20253;-87
2023/06/13 05:50:13;;;;;;;10.00;3.33;;;;;;;18.72;91.34;95910.72;6164383;23;20001;-87
2023/06/13 05:52:38;;;;;;;7.53;3.43;;;;;;;19.15;89.46;95901.88;6139087;23;20059;-86
2023/06/13 05:55:06;;;;;;;8.70;3.23;;;;;;;19.37;86.90;95908.41;6164049;23;20013;-87
2023/06/13 05:57:39;;;;;;;6.40;3.10;;;;;;;19.18;87.96;95901.44;6140361;23;20016;-85
2023/06/13 06:00:13;;;;;;;9.33;3.60;;;;;;;19.10;85.92;95901.75;6162309;23;20001;-86
2023/06/13 06:02:44;;;;;;;6.73;3.83;;;;;;;19.52;85.83;95903.53;6162323;23;20059;-87
2023/06/13 06:05:11;;;;;;;5.53;2.90;;;;;;;19.81;80.62;95898.47;6161501;23;20001;-86
2023/06/13 06:07:37;;;;;;;6.87;3.60;;;;;;;19.60;82.63;95890.94;6136484;23;19997;-86
2023/06/13 06:10:06;;;;;;;7.63;3.30;;;;;;;19.93;78.90;95879.88;6163231;23;19997;-88
2023/06/13 06:12:32;;;;;;;6.53;3.30;;;;;;;19.77;75.18;95891.97;6137662;23;20009;-89
2023/06/13 06:14:57;;;;;;;6.07;3.43;;;;;;;19.75;78.73;95886.88;6185067;23;20005;-90
2023/06/13 06:17:23;;;;;;;6.47;3.20;;;;;;;20.29;68.83;95886.94;6161717;23;20001;-88
2023/06/13 06:19:49;;;;;;;7.37;3.23;;;;;;;20.36;68.07;95894.84;6160426;23;20350;-87
2023/06/13 06:22:15;;;;;;;8.00;3.97;;;;;;;20.83;66.52;95893.09;6161355;23;20005;-87
2023/06/13 06:24:42;;;;;;;7.30;3.57;;;;;;;20.93;66.15;95898.66;6136271;23;20503;-85
2023/06/13 06:27:08;;;;;;;10.00;4.20;;;;;;;21.05;64.24;95903.19;6135504;23;19997;-86
2023/06/13 06:29:33;;;;;;;5.53;3.10;;;;;;;20.60;65.88;95903.75;6137575;23;20005;-87
2023/06/13 06:31:59;;;;;;;10.20;3.77;;;;;;;20.75;67.17;95898.75;6136980;23;20005;-87
2023/06/13 06:34:25;;;;;;;8.35;3.22;;;;;;;20.83;63.86;95903.78;6137314;23;20008;-87
2023/06/13 06:36:50;;;;;;;10.60;3.70;;;;;;;20.75;65.43;95898.75;6137201;23;20013;-87
2023/06/13 06:39:16;;;;;;;7.75;3.08;;;;;;;21.56;60.35;95896.28;6136347;23;20001;-87
2023/06/13 06:41:42;;;;;;;6.38;3.40;;;;;;;21.52;60.68;95890.59;6136770;23;20012;-87
2023/06/13 06:44:08;;;;;;;7.25;3.55;;;;;;;21.23;62.49;95902.22;6162090;23;20005;-87
2023/06/13 06:46:34;;;;;;;7.47;3.10;;;;;;;21.03;60.55;95902.63;6163208;23;20143;-87
2023/06/13 06:49:01;;;;;;;7.07;3.53;;;;;;;21.71;57.00;95893.13;6163747;23;20515;-87
2023/06/13 06:51:27;;;;;;;5.68;3.28;;;;;;;22.55;53.05;95890.66;6162033;23;20072;-87
2023/06/13 06:53:52;;;;;;;8.27;3.50;;;;;;;22.31;49.53;95896.13;6136640;23;20269;-87
2023/06/13 06:56:18;;;;;;;7.35;3.17;;;;;;;22.91;49.83;95891.22;6160389;23;20020;-87
2023/06/13 06:58:44;;;;;;;6.07;3.10;;;;;;;22.16;50.80;95892.38;6134945;23;20008;-87
2023/06/13 07:01:09;;;;;;;7.20;3.10;;;;;;;22.85;48.39;95886.81;6158240;23;20001;-87
2023/06/13 07:03:35;;;;;;;7.78;2.90;;;;;;;22.90;47.69;95889.56;6163618;23;20012;-87
2023/06/13 07:06:02;;;;;;;5.32;3.00;;;;;;;22.68;49.00;95897.56;6163826;23;20214;-86
2023/06/13 07:08:28;;;;;;;7.30;3.08;;;;;;;22.54;49.76;95892.50;6188107;23;20005;-86
2023/06/13 07:10:54;;;;;;;6.63;3.40;;;;;;;22.71;49.73;95889.84;6162956;23;20001;-86
2023/06/13 07:13:20;;;;;;;7.40;2.90;;;;;;;22.47;47.01;95893.72;6136961;23;20008;-87
2023/06/13 07:15:45;;;;;;;8.32;3.10;;;;;;;23.05;47.19;95892.53;6161733;23;20040;-86
2023/06/13 07:18:11;;;;;;;8.95;3.38;;;;;;;23.86;42.70;95886.59;6138106;23;20008;-86
2023/06/13 07:20:36;;;;;;;8.70;3.38;;;;;;;23.29;42.79;95883.19;6138646;23;20008;-87
2023/06/13 07:23:03;;;;;;;5.60;2.80;;;;;;;23.26;41.22;95898.97;6136748;23;20375;-85
2023/06/13 07:25:30;;;;;;;6.60;3.50;;;;;;;23.91;40.21;95889.31;6159993;23;20001;-86
2023/06/13 07:27:58;;;;;;;7.88;2.97;;;;;;;23.05;41.22;95895.19;6138517;23;20425;-86
2023/06/13 07:30:24;;;;;;;4.53;2.53;;;;;;;23.40;39.57;95894.06;6137498;23;20016;-85
2023/06/13 07:32:51;;;;;;;7.22;3.30;;;;;;;22.79;39.12;95910.06;6145000;23;20645;-85
2023/06/13 07:35:22;;;;;;;4.82;2.85;;;;;;;22.45;40.07;95903.88;6138537;23;20453;-86
2023/06/13 07:37:48;;;;;;;8.73;2.67;;;;;;;23.14;39.21;95895.56;6138444;23;20044;-86
2023/06/13 07:40:13;;;;;;;6.43;3.10;;;;;;;23.71;37.17;95898.00;6138825;23;20060;-85
2023/06/13 07:42:49;;;;;;;8.00;3.67;;;;;;;23.74;37.83;95897.47;6137835;23;20028;-86
2023/06/13 07:45:15;;;;;;;5.57;2.85;;;;;;;23.57;36.13;95894.81;6136407;23;20063;-85
2023/06/13 07:47:41;;;;;;;6.13;2.95;;;;;;;23.42;34.97;95892.75;6137405;23;20009;-86
2023/06/13 07:50:07;;;;;;;8.88;2.80;;;;;;;23.69;34.95;95898.22;6138515;23;20000;-86
2023/06/13 07:52:36;;;;;;;6.68;2.75;;;;;;;22.86;36.21;95893.81;6137947;23;20035;-86
2023/06/13 07:55:02;;;;;;;8.63;2.90;;;;;;;23.67;35.47;95884.19;6137145;23;20005;-86
2023/06/13 07:57:28;;;;;;;8.20;2.72;;;;;;;23.73;34.91;95910.06;6135700;23;20011;-85
2023/06/13 07:59:55;;;;;;;5.95;2.78;;;;;;;24.07;34.48;95877.69;6188087;23;20428;-86
2023/06/13 08:02:21;;;;;;;4.80;2.78;;;;;;;24.65;34.37;95886.88;6161399;23;20009;-86
2023/06/13 08:04:46;;;;;;;4.82;2.75;;;;;;;24.32;34.57;95887.09;6136414;23;20488;-85
2023/06/13 08:07:12;;;;;;;6.55;2.67;;;;;;;23.11;35.05;95880.00;6137886;23;19997;-86
2023/06/13 08:09:37;;;;;;;6.20;2.97;;;;;;;25.09;32.78;95881.25;6161333;23;20001;-85
2023/06/13 08:12:03;;;;;;;5.68;2.80;;;;;;;25.21;33.20;95874.88;6161564;23;20005;-85
2023/06/13 08:14:29;;;;;;;7.50;2.85;;;;;;;24.82;32.78;95885.94;6160842;23;20001;-86
2023/06/13 08:16:55;;;;;;;7.72;2.97;;;;;;;25.31;31.79;95870.38;6185486;23;20013;-85
2023/06/13 08:19:20;;;;;;;4.38;2.72;;;;;;;25.26;32.41;95872.25;6141484;23;20078;-86
2023/06/13 08:21:46;;;;;;;8.35;3.13;;;;;;;25.04;32.71;95880.41;6137900;23;20009;-85
2023/06/13 08:24:13;;;;;;;9.82;2.55;;;;;;;25.97;30.75;95872.56;6185732;23;20012;-85
2023/06/13 08:26:40;;;;;;;8.52;2.90;;;;;;;25.04;31.99;95885.78;6160940;23;20641;-85
2023/06/13 08:29:06;;;;;;;10.07;3.05;;;;;;;23.29;34.19;95879.69;6162339;23;20005;-85
2023/06/13 08:31:33;;;;;;;7.15;2.92;;;;;;;23.96;33.88;95879.47;6136990;23;20008;-85
2023/06/13 08:34:02;;;;;;;6.15;3.03;;;;;;;25.08;32.42;95859.97;6142505;23;20500;-85
2023/06/13 08:36:28;;;;;;;5.80;2.53;;;;;;;26.20;31.29;95862.38;6141075;23;20001;-85
2023/06/13 08:38:57;;;;;;;11.13;3.50;;;;;;;26.48;30.62;95851.09;6137179;23;20005;-82
2023/06/13 08:41:25;;;;;;;7.18;2.88;;;;;;;25.77;31.47;95857.09;6136866;23;20031;-85
2023/06/13 08:43:52;;;;;;;6.25;2.47;;;;;;;26.15;31.95;95857.75;6136275;23;20005;-85
2023/06/13 08:46:18;;;;;;;5.00;2.67;;;;;;;26.41;32.56;95861.31;6137978;23;20027;-86
2023/06/13 08:48:43;;;;;;;7.32;2.80;;;;;;;25.11;32.42;95864.84;6136947;23;20417;-85
2023/06/13 08:51:14;;;;;;;6.03;2.63;;;;;;;27.25;29.90;95849.13;6135245;23;20016;-85
2023/06/13 08:54:05;;;;;;;6.25;3.22;;;;;;;27.21;29.61;95855.38;6134821;23;20052;-84
2023/06/13 08:56:34;;;;;;;6.60;2.83;;;;;;;27.07;30.05;95860.50;6160279;23;20013;-84
2023/06/13 08:59:24;;;;;;;8.73;3.00;;;;;;;27.64;28.93;95843.06;6159654;23;20052;-84
2023/06/13 09:01:50;;;;;;;6.93;2.42;;;;;;;25.93;29.25;95860.69;6134889;23;20006;-85
2023/06/13 09:04:17;;;;;;;6.10;3.20;;;;;;;26.07;29.11;95856.41;6137634;23;20036;-85
2023/06/13 09:06:58;;;;;;;7.57;2.65;;;;;;;26.40;29.07;95850.81;6161210;23;20001;-86
2023/06/13 09:09:25;;;;;;;5.88;2.88;;;;;;;27.49;28.69;95849.31;6136787;23;20001;-85
2023/06/13 09:11:52;;;;;;;8.27;3.28;;;;;;;25.82;29.58;95853.63;6159852;23;20005;-85
2023/06/13 09:14:19;;;;;;;7.97;2.92;;;;;;;25.58;29.62;95847.88;6160462;23;20009;-84
2023/06/13 09:16:44;;;;;;;9.68;2.88;;;;;;;25.60;30.65;95857.31;6134979;23;20118;-85
2023/06/13 09:19:11;;;;;;;8.68;2.88;;;;;;;27.06;29.78;95845.34;6136194;23;20008;-85
2023/06/13 09:21:43;;;;;;;6.57;2.83;;;;;;;27.48;27.99;95844.19;6136836;23;20000;-85
2023/06/13 09:27:55;;;;;;;9.27;3.00;;;;;;;27.79;26.94;95847.59;6186651;23;20385;-86
2023/06/13 09:30:21;;;;;;;8.50;2.90;;;;;;;28.09;27.17;95852.03;6158202;23;20016;-85
2023/06/13 09:32:51;;;;;;;6.13;2.75;;;;;;;28.85;25.81;95853.38;6141680;23;20023;-85
2023/06/13 09:35:22;;;;;;;5.93;2.65;;;;;;;27.35;27.42;95842.88;6134761;23;20024;-86
2023/06/13 09:37:50;;;;;;;6.20;2.90;;;;;;;27.37;27.64;95839.94;6136222;23;20086;-84
2023/06/13 09:40:16;;;;;;;9.30;2.85;;;;;;;27.42;28.57;95848.81;6137591;23;20012;-84
2023/06/13 09:42:43;;;;;;;6.25;2.92;;;;;;;28.13;27.43;95849.56;6161585;23;20013;-90
2023/06/13 09:45:09;;;;;;;6.20;2.72;;;;;;;27.38;28.26;95847.75;6136949;23;20091;-87
2023/06/13 09:47:35;;;;;;;7.03;2.72;;;;;;;27.53;28.50;95844.16;6134717;23;20021;-88
2023/06/13 09:50:14;;;;;;;7.70;3.05;;;;;;;28.09;27.62;95840.41;6159886;23;20001;-84
2023/06/13 09:52:43;;;;;;;13.80;6.97;;;;;;;28.48;27.03;95828.81;6135337;23;20051;-82
2023/06/13 09:55:09;;;;;;;6.47;3.30;;;;;;;26.79;28.72;95842.97;6185520;23;20005;-83
2023/06/13 09:57:35;;;;;;;5.75;2.63;;;;;;;28.13;27.63;95822.53;6160344;23;20433;-83
2023/06/13 10:00:00;;;;;;;7.25;3.17;;;;;;;29.20;25.65;95813.53;6160681;23;20001;-84
2023/06/13 10:02:26;;;;;;;7.25;3.10;;;;;;;29.16;25.84;95820.63;6156866;23;20016;-83
2023/06/13 10:04:55;;;;;;;5.47;2.72;;;;;;;28.76;25.37;95822.59;6133719;23;20454;-84
2023/06/13 10:07:20;;;;;;;9.50;3.33;;;;;;;29.43;25.80;95814.63;6159165;23;20023;-84
2023/06/13 10:09:46;;;;;;;6.88;3.17;;;;;;;28.79;26.51;95824.75;6136138;23;20471;-86
2023/06/13 10:12:18;;;;;;;6.72;3.33;;;;;;;28.70;25.70;95828.34;6158846;23;20460;-83
2023/06/13 10:14:51;;;;;;;7.55;3.00;;;;;;;27.57;27.08;95828.25;6135886;23;20027;-83
2023/06/13 10:17:20;;;;;;;7.32;3.10;;;;;;;28.96;25.92;95821.59;6159295;23;20004;-83
2023/06/13 10:19:53;;;;;;;7.25;3.03;;;;;;;30.06;25.44;95824.38;6135438;23;20036;-82
2023/06/13 10:22:20;;;;;;;6.60;2.83;;;;;;;30.22;24.62;95812.25;6135467;23;20008;-83
2023/06/13 10:24:50;;;;;;;6.57;2.65;;;;;;;29.96;25.01;95824.53;6159545;23;20005;-83
2023/06/13 10:27:19;;;;;;;7.03;2.92;;;;;;;30.25;25.10;95819.00;6135230;23;20013;-83
2023/06/13 10:30:22;;;;;;;5.30;3.10;;;;;;;28.95;25.10;95813.78;6159566;23;20005;-82
2023/06/13 10:32:48;;;;;;;;;;;;;;;27.41;27.02;95827.50;6136361;23;20005;-82
2023/06/13 10:35:40;;;;;;;6.18;2.65;;;;;;;28.11;27.11;95816.63;6134762;23;19911;-82
2023/06/13 10:38:24;;;;;;;9.98;2.85;;;;;;;27.78;26.72;95813.56;6159048;23;20388;-82
2023/06/13 10:41:26;;;;;;;9.80;3.17;;;;;;;28.73;27.10;95809.63;6159105;23;20055;-82
2023/06/13 10:44:17;;;;;;;10.55;3.10;;;;;;;28.91;26.24;95808.13;6115459;23;20209;-82
2023/06/13 10:46:44;;;;;;;4.75;2.72;;;;;;;27.77;26.63;95821.94;6148938;23;20008;-83
2023/06/13 10:49:17;;;;;;;6.97;3.38;;;;;;;28.67;25.87;95816.19;6133018;23;20068;-83
2023/06/13 10:51:45;;;;;;;8.07;3.30;;;;;;;27.72;25.84;95820.03;6183841;23;20392;-83
2023/06/13 10:54:12;;;;;;;6.30;2.95;;;;;;;28.24;26.70;95818.69;6133986;23;20055;-83
2023/06/13 10:56:41;;;;;;;6.82;3.28;;;;;;;27.36;27.71;95806.69;6134157;23;20020;-83
2023/06/13 10:59:14;;;;;;;3.25;2.35;;;;;;;29.35;26.61;95790.88;6134756;23;20009;-83
2023/06/13 11:01:42;;;;;;;6.53;3.15;;;;;;;29.49;25.57;95796.41;6156055;23;20009;-83
2023/06/13 11:04:12;;;;;;;7.05;2.80;;;;;;;29.82;24.65;95795.44;6133790;23;20001;-82
2023/06/13 11:06:41;;;;;;;12.75;2.92;;;;;;;29.48;25.62;95781.25;6159364;23;20414;-83
2023/06/13 11:09:25;;;;;;;11.75;3.65;;;;;;;29.84;25.42;95781.59;6185597;23;20770;-83
2023/06/13 11:11:59;;;;;;;6.85;3.00;;;;;;;29.85;25.42;95788.63;6134851;23;20008;-83
2023/06/13 11:14:43;;;;;;;8.32;3.17;;;;;;;28.06;27.06;95795.00;6134623;23;20047;-83
2023/06/13 11:17:08;;;;;;;6.13;2.88;;;;;;;28.60;26.16;95786.75;6185993;23;20001;-83
2023/06/13 11:19:34;;;;;;;5.78;3.17;;;;;;;28.97;25.49;95784.50;6134998;23;20011;-83
2023/06/13 11:22:00;;;;;;;11.77;3.33;;;;;;;30.04;24.17;95785.91;6135183;23;20087;-83
2023/06/13 11:24:30;;;;;;;7.97;3.55;;;;;;;30.54;23.65;95783.50;6133510;23;20040;-81
2023/06/13 11:27:13;;;;;;;10.82;3.58;;;;;;;29.76;24.50;95772.22;6156212;23;20486;-82
2023/06/13 11:29:39;;;;;;;5.38;2.90;;;;;;;30.95;23.71;95777.38;6134077;23;20005;-81
2023/06/13 11:32:08;;;;;;;5.20;2.75;;;;;;;30.12;24.31;95782.53;6184322;23;20031;-81
2023/06/13 11:34:39;;;;;;;6.07;2.90;;;;;;;29.46;25.12;95772.59;6135503;23;20009;-80
2023/06/13 11:37:10;;;;;;;6.72;3.22;;;;;;;28.97;25.28;95781.81;6134666;23;20009;-81
2023/06/13 11:39:53;;;;;;;7.25;3.05;;;;;;;27.86;26.25;95777.84;6160382;23;20005;-81